sensor_id;sensor_type;location;lat;lon;timestamp;P1;durP1;ratioP1;P2;durP2;ratioP2
21987;SDS011;11158;53.404;-1.510;2023-02-17T00:00:28;7.13;;;5.70;;
21987;SDS011;11158;53.404;-1.510;2023-02-17T00:02:57;8.20;;;5.78;;
21987;SDS011;11158;53.404;-1.510;2023-02-17T00:05:23;7.13;;;6.43;;
21987;SDS011;11158;53.404;-1.510;2023-02-17T00:07:49;10.43;;;5.25;;
21987;SDS011;11158;53.404;-1.510;2023-02-17T00:10:15;6.40;;;4.75;;
21987;SDS011;11158;53.404;-1.510;2023-02-17T00:12:41;6.70;;;4.07;;
21987;SDS011;11158;53.404;-1.510;2023-02-17T00:15:06;4.43;;;3.63;;
21987;SDS011;11158;53.404;-1.510;2023-02-17T00:17:32;5.60;;;4.22;;
21987;SDS011;11158;53.404;-1.510;2023-02-17T00:19:58;7.43;;;4.32;;
21987;SDS011;11158;53.404;-1.510;2023-02-17T00:22:24;4.50;;;3.85;;
21987;SDS011;11158;53.404;-1.510;2023-02-17T00:24:49;3.92;;;2.83;;
21987;SDS011;11158;53.404;-1.510;2023-02-17T00:27:15;2.97;;;2.35;;
21987;SDS011;11158;53.404;-1.510;2023-02-17T00:29:40;2.55;;;1.92;;
21987;SDS011;11158;53.404;-1.510;2023-02-17T00:32:06;2.45;;;2.00;;
21987;SDS011;11158;53.404;-1.510;2023-02-17T00:34:34;3.00;;;1.70;;
21987;SDS011;11158;53.404;-1.510;2023-02-17T00:37:00;1.83;;;1.45;;
21987;SDS011;11158;53.404;-1.510;2023-02-17T00:39:26;6.30;;;1.75;;
21987;SDS011;11158;53.404;-1.510;2023-02-17T00:41:52;2.55;;;1.60;;
21987;SDS011;11158;53.404;-1.510;2023-02-17T00:44:19;3.53;;;1.77;;
21987;SDS011;11158;53.404;-1.510;2023-02-17T00:46:46;2.17;;;1.90;;
21987;SDS011;11158;53.404;-1.510;2023-02-17T00:49:16;2.28;;;1.48;;
21987;SDS011;11158;53.404;-1.510;2023-02-17T00:51:44;1.52;;;1.40;;
21987;SDS011;11158;53.404;-1.510;2023-02-17T00:54:11;1.90;;;1.63;;
21987;SDS011;11158;53.404;-1.510;2023-02-17T00:56:37;2.85;;;1.60;;
21987;SDS011;11158;53.404;-1.510;2023-02-17T00:59:03;2.88;;;1.50;;
21987;SDS011;11158;53.404;-1.510;2023-02-17T01:01:29;1.80;;;1.70;;
21987;SDS011;11158;53.404;-1.510;2023-02-17T01:03:55;2.67;;;1.67;;
21987;SDS011;11158;53.404;-1.510;2023-02-17T01:06:23;3.40;;;2.38;;
21987;SDS011;11158;53.404;-1.510;2023-02-17T01:08:50;2.88;;;2.20;;
21987;SDS011;11158;53.404;-1.510;2023-02-17T01:11:19;3.22;;;2.03;;
21987;SDS011;11158;53.404;-1.510;2023-02-17T01:13:46;2.50;;;1.80;;
21987;SDS011;11158;53.404;-1.510;2023-02-17T01:16:22;2.72;;;2.50;;
21987;SDS011;11158;53.404;-1.510;2023-02-17T01:18:50;5.05;;;2.40;;
21987;SDS011;11158;53.404;-1.510;2023-02-17T01:21:23;3.25;;;2.17;;
21987;SDS011;11158;53.404;-1.510;2023-02-17T01:23:50;4.35;;;2.58;;
21987;SDS011;11158;53.404;-1.510;2023-02-17T01:26:19;2.70;;;2.17;;
21987;SDS011;11158;53.404;-1.510;2023-02-17T01:28:46;3.70;;;2.30;;
21987;SDS011;11158;53.404;-1.510;2023-02-17T01:31:13;3.20;;;1.70;;
21987;SDS011;11158;53.404;-1.510;2023-02-17T01:33:39;1.80;;;1.70;;
21987;SDS011;11158;53.404;-1.510;2023-02-17T01:36:06;2.17;;;1.77;;
21987;SDS011;11158;53.404;-1.510;2023-02-17T01:38:33;2.55;;;1.95;;
21987;SDS011;11158;53.404;-1.510;2023-02-17T01:41:00;3.67;;;1.73;;
21987;SDS011;11158;53.404;-1.510;2023-02-17T01:43:25;3.70;;;2.10;;
21987;SDS011;11158;53.404;-1.510;2023-02-17T01:45:52;4.03;;;2.15;;
21987;SDS011;11158;53.404;-1.510;2023-02-17T01:48:20;3.67;;;1.80;;
21987;SDS011;11158;53.404;-1.510;2023-02-17T01:50:50;2.10;;;1.90;;
21987;SDS011;11158;53.404;-1.510;2023-02-17T01:53:34;3.30;;;2.13;;
21987;SDS011;11158;53.404;-1.510;2023-02-17T01:56:03;2.28;;;2.03;;
21987;SDS011;11158;53.404;-1.510;2023-02-17T01:58:29;3.67;;;2.35;;
21987;SDS011;11158;53.404;-1.510;2023-02-17T02:00:57;3.22;;;2.20;;
21987;SDS011;11158;53.404;-1.510;2023-02-17T02:03:25;2.10;;;1.90;;
21987;SDS011;11158;53.404;-1.510;2023-02-17T02:05:53;2.88;;;1.83;;
21987;SDS011;11158;53.404;-1.510;2023-02-17T02:08:19;4.20;;;1.80;;
21987;SDS011;11158;53.404;-1.510;2023-02-17T02:10:45;2.08;;;1.77;;
21987;SDS011;11158;53.404;-1.510;2023-02-17T02:13:10;3.33;;;1.73;;
21987;SDS011;11158;53.404;-1.510;2023-02-17T02:15:39;1.48;;;1.38;;
21987;SDS011;11158;53.404;-1.510;2023-02-17T02:23:48;2.00;;;1.48;;
21987;SDS011;11158;53.404;-1.510;2023-02-17T02:34:56;2.10;;;1.35;;
21987;SDS011;11158;53.404;-1.510;2023-02-17T02:37:24;1.80;;;1.40;;
21987;SDS011;11158;53.404;-1.510;2023-02-17T02:40:00;1.35;;;1.25;;
21987;SDS011;11158;53.404;-1.510;2023-02-17T02:42:30;1.77;;;1.20;;
21987;SDS011;11158;53.404;-1.510;2023-02-17T02:44:57;1.77;;;1.05;;
21987;SDS011;11158;53.404;-1.510;2023-02-17T02:50:09;3.25;;;1.58;;
21987;SDS011;11158;53.404;-1.510;2023-02-17T02:58:23;2.58;;;1.30;;
21987;SDS011;11158;53.404;-1.510;2023-02-17T03:01:02;2.05;;;1.20;;
21987;SDS011;11158;53.404;-1.510;2023-02-17T03:03:40;2.65;;;1.50;;
21987;SDS011;11158;53.404;-1.510;2023-02-17T03:06:10;2.45;;;0.90;;
21987;SDS011;11158;53.404;-1.510;2023-02-17T03:08:38;2.67;;;1.02;;
21987;SDS011;11158;53.404;-1.510;2023-02-17T03:11:12;1.67;;;0.77;;
21987;SDS011;11158;53.404;-1.510;2023-02-17T03:14:12;2.85;;;1.35;;
21987;SDS011;11158;53.404;-1.510;2023-02-17T03:16:40;1.55;;;1.17;;
21987;SDS011;11158;53.404;-1.510;2023-02-17T03:19:07;3.67;;;1.20;;
21987;SDS011;11158;53.404;-1.510;2023-02-17T03:21:54;3.17;;;1.50;;
21987;SDS011;11158;53.404;-1.510;2023-02-17T03:24:23;2.75;;;1.83;;
21987;SDS011;11158;53.404;-1.510;2023-02-17T03:26:49;3.35;;;2.05;;
21987;SDS011;11158;53.404;-1.510;2023-02-17T03:29:15;4.80;;;1.92;;
21987;SDS011;11158;53.404;-1.510;2023-02-17T03:31:41;4.28;;;2.45;;
21987;SDS011;11158;53.404;-1.510;2023-02-17T03:34:07;2.13;;;1.20;;
21987;SDS011;11158;53.404;-1.510;2023-02-17T03:36:33;3.10;;;1.67;;
21987;SDS011;11158;53.404;-1.510;2023-02-17T03:38:59;1.95;;;1.35;;
21987;SDS011;11158;53.404;-1.510;2023-02-17T03:41:26;4.05;;;1.67;;
21987;SDS011;11158;53.404;-1.510;2023-02-17T03:43:51;4.28;;;1.73;;
21987;SDS011;11158;53.404;-1.510;2023-02-17T03:46:17;4.13;;;1.67;;
21987;SDS011;11158;53.404;-1.510;2023-02-17T03:48:43;4.90;;;1.80;;
21987;SDS011;11158;53.404;-1.510;2023-02-17T03:51:12;4.75;;;2.20;;
21987;SDS011;11158;53.404;-1.510;2023-02-17T03:53:41;4.47;;;1.90;;
21987;SDS011;11158;53.404;-1.510;2023-02-17T03:56:07;4.28;;;2.65;;
21987;SDS011;11158;53.404;-1.510;2023-02-17T03:58:33;8.35;;;2.70;;
21987;SDS011;11158;53.404;-1.510;2023-02-17T04:00:59;2.05;;;1.65;;
21987;SDS011;11158;53.404;-1.510;2023-02-17T04:03:24;3.70;;;1.83;;
21987;SDS011;11158;53.404;-1.510;2023-02-17T04:05:50;6.22;;;2.45;;
21987;SDS011;11158;53.404;-1.510;2023-02-17T04:08:16;7.50;;;2.30;;
21987;SDS011;11158;53.404;-1.510;2023-02-17T04:10:42;7.45;;;2.70;;
21987;SDS011;11158;53.404;-1.510;2023-02-17T04:13:09;7.45;;;3.30;;
21987;SDS011;11158;53.404;-1.510;2023-02-17T04:15:34;3.92;;;2.65;;
21987;SDS011;11158;53.404;-1.510;2023-02-17T04:18:00;4.00;;;3.25;;
21987;SDS011;11158;53.404;-1.510;2023-02-17T04:20:25;5.35;;;3.85;;
21987;SDS011;11158;53.404;-1.510;2023-02-17T04:22:51;8.18;;;3.97;;
21987;SDS011;11158;53.404;-1.510;2023-02-17T04:25:16;7.57;;;4.32;;
21987;SDS011;11158;53.404;-1.510;2023-02-17T04:27:42;6.88;;;3.70;;
21987;SDS011;11158;53.404;-1.510;2023-02-17T04:30:08;9.20;;;4.15;;
21987;SDS011;11158;53.404;-1.510;2023-02-17T04:32:34;5.18;;;3.63;;
21987;SDS011;11158;53.404;-1.510;2023-02-17T04:34:59;6.15;;;4.07;;
21987;SDS011;11158;53.404;-1.510;2023-02-17T04:37:25;6.05;;;3.95;;
21987;SDS011;11158;53.404;-1.510;2023-02-17T04:39:51;5.68;;;3.30;;
21987;SDS011;11158;53.404;-1.510;2023-02-17T04:42:16;6.40;;;3.50;;
21987;SDS011;11158;53.404;-1.510;2023-02-17T04:44:42;6.47;;;2.58;;
21987;SDS011;11158;53.404;-1.510;2023-02-17T04:47:07;5.25;;;3.05;;
21987;SDS011;11158;53.404;-1.510;2023-02-17T04:49:33;5.78;;;2.70;;
21987;SDS011;11158;53.404;-1.510;2023-02-17T04:51:58;7.22;;;3.65;;
21987;SDS011;11158;53.404;-1.510;2023-02-17T04:54:24;5.63;;;3.08;;
21987;SDS011;11158;53.404;-1.510;2023-02-17T04:56:49;4.72;;;3.35;;
21987;SDS011;11158;53.404;-1.510;2023-02-17T04:59:15;6.72;;;2.47;;
21987;SDS011;11158;53.404;-1.510;2023-02-17T05:01:41;7.07;;;4.10;;
21987;SDS011;11158;53.404;-1.510;2023-02-17T05:04:06;6.53;;;3.88;;
21987;SDS011;11158;53.404;-1.510;2023-02-17T05:06:32;7.05;;;3.45;;
21987;SDS011;11158;53.404;-1.510;2023-02-17T05:08:57;6.18;;;3.90;;
21987;SDS011;11158;53.404;-1.510;2023-02-17T05:11:23;6.88;;;3.47;;
21987;SDS011;11158;53.404;-1.510;2023-02-17T05:13:49;7.00;;;4.13;;
21987;SDS011;11158;53.404;-1.510;2023-02-17T05:16:14;6.03;;;3.45;;
21987;SDS011;11158;53.404;-1.510;2023-02-17T05:18:40;4.82;;;3.55;;
21987;SDS011;11158;53.404;-1.510;2023-02-17T05:21:05;5.18;;;3.88;;
21987;SDS011;11158;53.404;-1.510;2023-02-17T05:23:31;7.15;;;3.17;;
21987;SDS011;11158;53.404;-1.510;2023-02-17T05:25:57;5.18;;;3.80;;
21987;SDS011;11158;53.404;-1.510;2023-02-17T05:28:22;6.38;;;3.60;;
21987;SDS011;11158;53.404;-1.510;2023-02-17T05:30:48;5.93;;;2.42;;
21987;SDS011;11158;53.404;-1.510;2023-02-17T05:33:14;5.50;;;2.33;;
21987;SDS011;11158;53.404;-1.510;2023-02-17T05:35:40;4.63;;;1.85;;
21987;SDS011;11158;53.404;-1.510;2023-02-17T05:38:05;5.03;;;1.58;;
21987;SDS011;11158;53.404;-1.510;2023-02-17T05:40:31;7.22;;;1.65;;
21987;SDS011;11158;53.404;-1.510;2023-02-17T05:42:57;1.58;;;0.93;;
21987;SDS011;11158;53.404;-1.510;2023-02-17T05:45:22;2.92;;;0.90;;
21987;SDS011;11158;53.404;-1.510;2023-02-17T05:47:48;5.53;;;0.95;;
21987;SDS011;11158;53.404;-1.510;2023-02-17T05:50:13;2.08;;;1.10;;
21987;SDS011;11158;53.404;-1.510;2023-02-17T05:52:39;3.67;;;0.77;;
21987;SDS011;11158;53.404;-1.510;2023-02-17T05:55:05;3.95;;;0.68;;
21987;SDS011;11158;53.404;-1.510;2023-02-17T05:57:31;1.30;;;0.75;;
21987;SDS011;11158;53.404;-1.510;2023-02-17T05:59:57;3.60;;;0.98;;
21987;SDS011;11158;53.404;-1.510;2023-02-17T06:02:22;2.88;;;0.75;;
21987;SDS011;11158;53.404;-1.510;2023-02-17T06:04:48;2.83;;;0.60;;
21987;SDS011;11158;53.404;-1.510;2023-02-17T06:07:17;2.70;;;0.98;;
21987;SDS011;11158;53.404;-1.510;2023-02-17T06:09:42;3.78;;;0.65;;
21987;SDS011;11158;53.404;-1.510;2023-02-17T06:12:08;1.38;;;0.70;;
21987;SDS011;11158;53.404;-1.510;2023-02-17T06:14:34;2.08;;;0.65;;
21987;SDS011;11158;53.404;-1.510;2023-02-17T06:16:59;2.22;;;0.55;;
21987;SDS011;11158;53.404;-1.510;2023-02-17T06:19:28;2.65;;;1.02;;
21987;SDS011;11158;53.404;-1.510;2023-02-17T06:21:53;4.28;;;0.80;;
21987;SDS011;11158;53.404;-1.510;2023-02-17T06:24:21;0.90;;;0.50;;
21987;SDS011;11158;53.404;-1.510;2023-02-17T06:26:47;1.40;;;0.60;;
21987;SDS011;11158;53.404;-1.510;2023-02-17T06:29:13;2.00;;;0.80;;
21987;SDS011;11158;53.404;-1.510;2023-02-17T06:31:39;2.97;;;0.90;;
21987;SDS011;11158;53.404;-1.510;2023-02-17T06:34:05;2.67;;;0.85;;
21987;SDS011;11158;53.404;-1.510;2023-02-17T06:36:30;1.45;;;0.50;;
21987;SDS011;11158;53.404;-1.510;2023-02-17T06:38:56;3.47;;;0.85;;
21987;SDS011;11158;53.404;-1.510;2023-02-17T06:41:21;1.85;;;0.73;;
21987;SDS011;11158;53.404;-1.510;2023-02-17T06:43:47;3.17;;;0.80;;
21987;SDS011;11158;53.404;-1.510;2023-02-17T06:46:13;1.70;;;0.60;;
21987;SDS011;11158;53.404;-1.510;2023-02-17T06:48:38;2.85;;;0.80;;
21987;SDS011;11158;53.404;-1.510;2023-02-17T06:51:04;1.60;;;0.73;;
21987;SDS011;11158;53.404;-1.510;2023-02-17T06:53:30;2.33;;;0.77;;
21987;SDS011;11158;53.404;-1.510;2023-02-17T06:55:55;3.55;;;1.00;;
21987;SDS011;11158;53.404;-1.510;2023-02-17T06:58:21;3.03;;;0.85;;
21987;SDS011;11158;53.404;-1.510;2023-02-17T07:00:46;3.33;;;0.88;;
21987;SDS011;11158;53.404;-1.510;2023-02-17T07:03:12;5.60;;;0.98;;
21987;SDS011;11158;53.404;-1.510;2023-02-17T07:05:38;2.00;;;0.77;;
21987;SDS011;11158;53.404;-1.510;2023-02-17T07:08:04;1.95;;;0.70;;
21987;SDS011;11158;53.404;-1.510;2023-02-17T07:10:30;0.98;;;0.60;;
21987;SDS011;11158;53.404;-1.510;2023-02-17T07:12:57;3.67;;;0.80;;
21987;SDS011;11158;53.404;-1.510;2023-02-17T07:15:22;1.77;;;0.68;;
21987;SDS011;11158;53.404;-1.510;2023-02-17T07:17:48;2.97;;;0.80;;
21987;SDS011;11158;53.404;-1.510;2023-02-17T07:20:14;1.52;;;0.70;;
21987;SDS011;11158;53.404;-1.510;2023-02-17T07:22:39;1.42;;;0.80;;
21987;SDS011;11158;53.404;-1.510;2023-02-17T07:25:05;1.77;;;0.90;;
21987;SDS011;11158;53.404;-1.510;2023-02-17T07:27:31;2.40;;;1.42;;
21987;SDS011;11158;53.404;-1.510;2023-02-17T07:30:00;3.25;;;1.30;;
21987;SDS011;11158;53.404;-1.510;2023-02-17T07:32:25;1.33;;;0.80;;
21987;SDS011;11158;53.404;-1.510;2023-02-17T07:34:51;3.22;;;1.00;;
21987;SDS011;11158;53.404;-1.510;2023-02-17T07:37:16;3.10;;;0.90;;
21987;SDS011;11158;53.404;-1.510;2023-02-17T07:39:44;2.50;;;1.00;;
21987;SDS011;11158;53.404;-1.510;2023-02-17T07:42:09;2.20;;;1.00;;
21987;SDS011;11158;53.404;-1.510;2023-02-17T07:44:35;1.30;;;0.77;;
21987;SDS011;11158;53.404;-1.510;2023-02-17T07:47:01;2.08;;;0.82;;
21987;SDS011;11158;53.404;-1.510;2023-02-17T07:49:26;1.30;;;0.73;;
21987;SDS011;11158;53.404;-1.510;2023-02-17T07:51:52;1.50;;;1.15;;
21987;SDS011;11158;53.404;-1.510;2023-02-17T07:54:18;1.77;;;1.23;;
21987;SDS011;11158;53.404;-1.510;2023-02-17T07:56:43;2.42;;;1.20;;
21987;SDS011;11158;53.404;-1.510;2023-02-17T07:59:09;2.30;;;1.25;;
21987;SDS011;11158;53.404;-1.510;2023-02-17T08:01:37;1.45;;;1.15;;
21987;SDS011;11158;53.404;-1.510;2023-02-17T08:04:03;3.35;;;1.30;;
21987;SDS011;11158;53.404;-1.510;2023-02-17T08:06:29;2.17;;;1.38;;
21987;SDS011;11158;53.404;-1.510;2023-02-17T08:08:55;3.20;;;1.42;;
21987;SDS011;11158;53.404;-1.510;2023-02-17T08:11:40;2.05;;;1.13;;
21987;SDS011;11158;53.404;-1.510;2023-02-17T08:14:25;1.63;;;0.90;;
21987;SDS011;11158;53.404;-1.510;2023-02-17T08:16:53;1.08;;;0.90;;
21987;SDS011;11158;53.404;-1.510;2023-02-17T08:19:18;1.60;;;1.02;;
21987;SDS011;11158;53.404;-1.510;2023-02-17T08:21:44;3.05;;;1.60;;
21987;SDS011;11158;53.404;-1.510;2023-02-17T08:24:10;4.28;;;1.70;;
21987;SDS011;11158;53.404;-1.510;2023-02-17T08:26:36;1.77;;;1.63;;
21987;SDS011;11158;53.404;-1.510;2023-02-17T08:29:02;2.97;;;1.20;;
21987;SDS011;11158;53.404;-1.510;2023-02-17T08:31:32;1.60;;;0.90;;
21987;SDS011;11158;53.404;-1.510;2023-02-17T08:34:03;2.70;;;0.82;;
21987;SDS011;11158;53.404;-1.510;2023-02-17T08:36:31;1.92;;;0.85;;
21987;SDS011;11158;53.404;-1.510;2023-02-17T08:38:56;0.80;;;0.80;;
21987;SDS011;11158;53.404;-1.510;2023-02-17T08:43:56;2.28;;;1.02;;
21987;SDS011;11158;53.404;-1.510;2023-02-17T08:46:23;2.15;;;0.90;;
21987;SDS011;11158;53.404;-1.510;2023-02-17T08:48:49;5.15;;;0.90;;
21987;SDS011;11158;53.404;-1.510;2023-02-17T08:51:15;5.38;;;0.98;;
21987;SDS011;11158;53.404;-1.510;2023-02-17T08:53:47;2.70;;;0.75;;
21987;SDS011;11158;53.404;-1.510;2023-02-17T08:56:14;1.90;;;0.57;;
21987;SDS011;11158;53.404;-1.510;2023-02-17T08:58:40;2.53;;;0.55;;
21987;SDS011;11158;53.404;-1.510;2023-02-17T09:01:06;4.57;;;0.88;;
21987;SDS011;11158;53.404;-1.510;2023-02-17T09:03:35;3.05;;;0.70;;
21987;SDS011;11158;53.404;-1.510;2023-02-17T09:06:02;1.98;;;0.60;;
21987;SDS011;11158;53.404;-1.510;2023-02-17T09:08:28;3.50;;;0.80;;
21987;SDS011;11158;53.404;-1.510;2023-02-17T09:10:54;3.28;;;0.90;;
21987;SDS011;11158;53.404;-1.510;2023-02-17T09:13:20;3.72;;;0.85;;
21987;SDS011;11158;53.404;-1.510;2023-02-17T09:15:46;7.10;;;1.45;;
21987;SDS011;11158;53.404;-1.510;2023-02-17T09:18:12;6.28;;;1.00;;
21987;SDS011;11158;53.404;-1.510;2023-02-17T09:20:37;5.47;;;1.30;;
21987;SDS011;11158;53.404;-1.510;2023-02-17T09:23:04;3.90;;;0.95;;
21987;SDS011;11158;53.404;-1.510;2023-02-17T09:25:30;4.60;;;1.15;;
21987;SDS011;11158;53.404;-1.510;2023-02-17T09:27:55;2.30;;;0.82;;
21987;SDS011;11158;53.404;-1.510;2023-02-17T09:30:21;2.80;;;1.25;;
21987;SDS011;11158;53.404;-1.510;2023-02-17T09:32:46;2.13;;;1.02;;
21987;SDS011;11158;53.404;-1.510;2023-02-17T09:35:12;2.20;;;0.88;;
21987;SDS011;11158;53.404;-1.510;2023-02-17T09:37:39;3.20;;;0.95;;
21987;SDS011;11158;53.404;-1.510;2023-02-17T09:40:06;7.38;;;1.67;;
21987;SDS011;11158;53.404;-1.510;2023-02-17T09:42:33;3.70;;;1.27;;
21987;SDS011;11158;53.404;-1.510;2023-02-17T09:45:05;1.92;;;0.75;;
21987;SDS011;11158;53.404;-1.510;2023-02-17T09:47:44;3.25;;;1.00;;
21987;SDS011;11158;53.404;-1.510;2023-02-17T09:50:15;5.15;;;1.15;;
21987;SDS011;11158;53.404;-1.510;2023-02-17T09:52:46;7.35;;;1.48;;
21987;SDS011;11158;53.404;-1.510;2023-02-17T09:55:22;2.45;;;0.85;;
21987;SDS011;11158;53.404;-1.510;2023-02-17T10:00:59;4.22;;;0.93;;
21987;SDS011;11158;53.404;-1.510;2023-02-17T10:06:16;3.88;;;0.73;;
21987;SDS011;11158;53.404;-1.510;2023-02-17T10:11:43;6.70;;;1.80;;
21987;SDS011;11158;53.404;-1.510;2023-02-17T10:14:28;4.40;;;1.45;;
21987;SDS011;11158;53.404;-1.510;2023-02-17T10:17:02;5.30;;;0.88;;
21987;SDS011;11158;53.404;-1.510;2023-02-17T10:19:50;6.20;;;0.82;;
21987;SDS011;11158;53.404;-1.510;2023-02-17T10:22:24;6.70;;;1.27;;
21987;SDS011;11158;53.404;-1.510;2023-02-17T10:24:51;3.35;;;1.10;;
21987;SDS011;11158;53.404;-1.510;2023-02-17T10:32:40;7.00;;;1.48;;
21987;SDS011;11158;53.404;-1.510;2023-02-17T10:35:14;7.82;;;1.85;;
21987;SDS011;11158;53.404;-1.510;2023-02-17T10:37:48;5.55;;;1.35;;
21987;SDS011;11158;53.404;-1.510;2023-02-17T10:40:26;3.22;;;1.10;;
21987;SDS011;11158;53.404;-1.510;2023-02-17T10:42:57;5.88;;;1.45;;
21987;SDS011;11158;53.404;-1.510;2023-02-17T10:45:39;2.92;;;1.00;;
21987;SDS011;11158;53.404;-1.510;2023-02-17T10:48:08;5.05;;;1.50;;
21987;SDS011;11158;53.404;-1.510;2023-02-17T10:50:40;4.70;;;1.08;;
21987;SDS011;11158;53.404;-1.510;2023-02-17T10:58:13;4.18;;;1.45;;
21987;SDS011;11158;53.404;-1.510;2023-02-17T11:00:46;3.58;;;0.98;;
21987;SDS011;11158;53.404;-1.510;2023-02-17T11:03:17;7.35;;;1.13;;
21987;SDS011;11158;53.404;-1.510;2023-02-17T11:05:52;6.45;;;1.70;;
21987;SDS011;11158;53.404;-1.510;2023-02-17T11:08:39;6.68;;;1.30;;
21987;SDS011;11158;53.404;-1.510;2023-02-17T11:11:19;3.60;;;1.00;;
21987;SDS011;11158;53.404;-1.510;2023-02-17T11:16:45;5.03;;;1.08;;
21987;SDS011;11158;53.404;-1.510;2023-02-17T11:19:20;5.82;;;1.33;;
21987;SDS011;11158;53.404;-1.510;2023-02-17T11:21:53;5.22;;;1.13;;
21987;SDS011;11158;53.404;-1.510;2023-02-17T11:24:20;5.40;;;1.25;;
21987;SDS011;11158;53.404;-1.510;2023-02-17T11:29:26;7.95;;;1.50;;
21987;SDS011;11158;53.404;-1.510;2023-02-17T11:31:53;6.80;;;1.48;;
21987;SDS011;11158;53.404;-1.510;2023-02-17T11:34:20;5.10;;;1.27;;
21987;SDS011;11158;53.404;-1.510;2023-02-17T11:36:56;4.60;;;1.35;;
21987;SDS011;11158;53.404;-1.510;2023-02-17T11:39:28;2.90;;;1.17;;
21987;SDS011;11158;53.404;-1.510;2023-02-17T11:41:54;1.98;;;0.90;;
21987;SDS011;11158;53.404;-1.510;2023-02-17T11:44:24;4.65;;;0.90;;
21987;SDS011;11158;53.404;-1.510;2023-02-17T11:46:58;5.07;;;1.40;;
21987;SDS011;11158;53.404;-1.510;2023-02-17T12:00:15;4.10;;;1.20;;
21987;SDS011;11158;53.404;-1.510;2023-02-17T12:14:13;1.25;;;0.60;;
21987;SDS011;11158;53.404;-1.510;2023-02-17T12:19:39;3.35;;;0.90;;
21987;SDS011;11158;53.404;-1.510;2023-02-17T12:22:18;2.72;;;1.02;;
21987;SDS011;11158;53.404;-1.510;2023-02-17T12:25:20;3.13;;;1.10;;
21987;SDS011;11158;53.404;-1.510;2023-02-17T12:33:58;7.88;;;1.45;;
21987;SDS011;11158;53.404;-1.510;2023-02-17T12:36:33;4.50;;;1.40;;
21987;SDS011;11158;53.404;-1.510;2023-02-17T12:39:13;3.08;;;1.02;;
21987;SDS011;11158;53.404;-1.510;2023-02-17T12:41:50;5.18;;;1.30;;
21987;SDS011;11158;53.404;-1.510;2023-02-17T12:44:22;5.55;;;1.38;;
21987;SDS011;11158;53.404;-1.510;2023-02-17T12:46:52;3.30;;;1.35;;
21987;SDS011;11158;53.404;-1.510;2023-02-17T12:54:44;4.70;;;1.40;;
21987;SDS011;11158;53.404;-1.510;2023-02-17T12:59:51;5.75;;;1.25;;
21987;SDS011;11158;53.404;-1.510;2023-02-17T13:02:19;3.83;;;1.00;;
21987;SDS011;11158;53.404;-1.510;2023-02-17T13:04:48;3.17;;;0.98;;
21987;SDS011;11158;53.404;-1.510;2023-02-17T13:10:28;9.40;;;3.58;;
21987;SDS011;11158;53.404;-1.510;2023-02-17T13:13:10;8.20;;;1.23;;
21987;SDS011;11158;53.404;-1.510;2023-02-17T13:15:43;5.25;;;1.10;;
21987;SDS011;11158;53.404;-1.510;2023-02-17T13:20:42;8.30;;;1.50;;
21987;SDS011;11158;53.404;-1.510;2023-02-17T13:23:41;8.88;;;1.45;;
21987;SDS011;11158;53.404;-1.510;2023-02-17T13:26:22;7.90;;;1.40;;
21987;SDS011;11158;53.404;-1.510;2023-02-17T13:29:05;7.93;;;1.60;;
21987;SDS011;11158;53.404;-1.510;2023-02-17T13:31:43;7.95;;;1.38;;
21987;SDS011;11158;53.404;-1.510;2023-02-17T13:36:56;7.95;;;2.03;;
21987;SDS011;11158;53.404;-1.510;2023-02-17T13:41:51;8.82;;;2.13;;
21987;SDS011;11158;53.404;-1.510;2023-02-17T13:44:30;8.00;;;1.55;;
21987;SDS011;11158;53.404;-1.510;2023-02-17T13:47:10;8.52;;;1.88;;
21987;SDS011;11158;53.404;-1.510;2023-02-17T13:49:39;6.57;;;1.50;;
21987;SDS011;11158;53.404;-1.510;2023-02-17T13:52:09;8.00;;;1.80;;
21987;SDS011;11158;53.404;-1.510;2023-02-17T13:54:49;9.40;;;1.80;;
21987;SDS011;11158;53.404;-1.510;2023-02-17T13:57:32;6.03;;;1.35;;
21987;SDS011;11158;53.404;-1.510;2023-02-17T14:02:43;9.85;;;1.98;;
21987;SDS011;11158;53.404;-1.510;2023-02-17T14:05:18;6.55;;;1.63;;
21987;SDS011;11158;53.404;-1.510;2023-02-17T14:07:57;10.02;;;1.75;;
21987;SDS011;11158;53.404;-1.510;2023-02-17T14:10:41;9.35;;;2.75;;
21987;SDS011;11158;53.404;-1.510;2023-02-17T14:13:10;8.32;;;1.50;;
21987;SDS011;11158;53.404;-1.510;2023-02-17T14:15:37;10.45;;;1.42;;
21987;SDS011;11158;53.404;-1.510;2023-02-17T14:18:15;8.07;;;1.63;;
21987;SDS011;11158;53.404;-1.510;2023-02-17T14:21:03;7.78;;;2.05;;
21987;SDS011;11158;53.404;-1.510;2023-02-17T14:23:41;8.18;;;1.88;;
21987;SDS011;11158;53.404;-1.510;2023-02-17T14:28:56;6.22;;;1.90;;
21987;SDS011;11158;53.404;-1.510;2023-02-17T14:31:24;7.32;;;1.70;;
21987;SDS011;11158;53.404;-1.510;2023-02-17T14:33:51;8.90;;;1.98;;
21987;SDS011;11158;53.404;-1.510;2023-02-17T14:36:37;7.50;;;1.80;;
21987;SDS011;11158;53.404;-1.510;2023-02-17T14:39:07;7.40;;;1.60;;
21987;SDS011;11158;53.404;-1.510;2023-02-17T14:41:38;7.05;;;1.40;;
21987;SDS011;11158;53.404;-1.510;2023-02-17T14:44:03;5.70;;;1.40;;
21987;SDS011;11158;53.404;-1.510;2023-02-17T14:46:30;8.52;;;2.15;;
21987;SDS011;11158;53.404;-1.510;2023-02-17T14:48:56;10.35;;;2.42;;
21987;SDS011;11158;53.404;-1.510;2023-02-17T14:51:23;8.32;;;1.88;;
21987;SDS011;11158;53.404;-1.510;2023-02-17T14:53:50;9.52;;;1.92;;
21987;SDS011;11158;53.404;-1.510;2023-02-17T14:56:30;8.52;;;1.85;;
21987;SDS011;11158;53.404;-1.510;2023-02-17T14:58:59;6.35;;;1.98;;
21987;SDS011;11158;53.404;-1.510;2023-02-17T15:01:25;10.43;;;1.63;;
21987;SDS011;11158;53.404;-1.510;2023-02-17T15:03:52;6.43;;;1.55;;
21987;SDS011;11158;53.404;-1.510;2023-02-17T15:08:48;9.07;;;2.00;;
21987;SDS011;11158;53.404;-1.510;2023-02-17T15:11:18;8.25;;;1.48;;
21987;SDS011;11158;53.404;-1.510;2023-02-17T15:13:51;10.52;;;1.95;;
21987;SDS011;11158;53.404;-1.510;2023-02-17T15:16:17;9.23;;;1.80;;
21987;SDS011;11158;53.404;-1.510;2023-02-17T15:18:43;4.05;;;1.60;;
21987;SDS011;11158;53.404;-1.510;2023-02-17T15:21:26;5.18;;;1.33;;
21987;SDS011;11158;53.404;-1.510;2023-02-17T15:23:53;4.32;;;1.20;;
21987;SDS011;11158;53.404;-1.510;2023-02-17T15:26:21;9.32;;;1.65;;
21987;SDS011;11158;53.404;-1.510;2023-02-17T15:28:47;5.68;;;1.38;;
21987;SDS011;11158;53.404;-1.510;2023-02-17T15:31:13;5.80;;;1.15;;
21987;SDS011;11158;53.404;-1.510;2023-02-17T15:33:42;5.95;;;1.30;;
21987;SDS011;11158;53.404;-1.510;2023-02-17T15:36:09;5.90;;;1.23;;
21987;SDS011;11158;53.404;-1.510;2023-02-17T15:38:39;8.77;;;1.60;;
21987;SDS011;11158;53.404;-1.510;2023-02-17T15:41:10;7.15;;;1.35;;
21987;SDS011;11158;53.404;-1.510;2023-02-17T15:43:41;5.40;;;1.10;;
21987;SDS011;11158;53.404;-1.510;2023-02-17T15:46:10;4.07;;;1.00;;
21987;SDS011;11158;53.404;-1.510;2023-02-17T15:48:38;4.57;;;1.10;;
21987;SDS011;11158;53.404;-1.510;2023-02-17T15:51:04;5.70;;;1.20;;
21987;SDS011;11158;53.404;-1.510;2023-02-17T15:53:30;14.32;;;1.88;;
21987;SDS011;11158;53.404;-1.510;2023-02-17T15:55:58;8.45;;;1.40;;
21987;SDS011;11158;53.404;-1.510;2023-02-17T15:58:26;7.47;;;1.50;;
21987;SDS011;11158;53.404;-1.510;2023-02-17T16:00:54;7.95;;;1.40;;
21987;SDS011;11158;53.404;-1.510;2023-02-17T16:03:24;4.88;;;1.00;;
21987;SDS011;11158;53.404;-1.510;2023-02-17T16:05:50;5.13;;;1.02;;
21987;SDS011;11158;53.404;-1.510;2023-02-17T16:08:17;4.85;;;1.13;;
21987;SDS011;11158;53.404;-1.510;2023-02-17T16:10:43;3.70;;;1.13;;
21987;SDS011;11158;53.404;-1.510;2023-02-17T16:13:11;7.07;;;2.00;;
21987;SDS011;11158;53.404;-1.510;2023-02-17T16:15:39;7.88;;;2.72;;
21987;SDS011;11158;53.404;-1.510;2023-02-17T16:18:09;10.02;;;1.55;;
21987;SDS011;11158;53.404;-1.510;2023-02-17T16:20:49;9.63;;;1.70;;
21987;SDS011;11158;53.404;-1.510;2023-02-17T16:23:16;8.45;;;1.60;;
21987;SDS011;11158;53.404;-1.510;2023-02-17T16:25:43;4.43;;;1.90;;
21987;SDS011;11158;53.404;-1.510;2023-02-17T16:28:14;8.57;;;1.77;;
21987;SDS011;11158;53.404;-1.510;2023-02-17T16:30:42;6.63;;;1.70;;